createdAt,value
2023-01-13T00:00:30.375Z,9.8
2023-01-13T00:02:36.115Z,9.8
2023-01-13T00:04:41.837Z,9.8
2023-01-13T00:06:47.485Z,9.8
2023-01-13T00:08:53.192Z,9.8
2023-01-13T00:10:58.872Z,9.7
2023-01-13T00:13:07.560Z,9.7
2023-01-13T00:15:13.304Z,9.7
2023-01-13T00:17:19.071Z,9.7
2023-01-13T00:19:50.391Z,9.7
2023-01-13T00:21:56.140Z,9.7
2023-01-13T00:24:01.858Z,9.8
2023-01-13T00:26:10.607Z,9.7
2023-01-13T00:28:16.280Z,9.7
2023-01-13T00:30:21.986Z,9.5
2023-01-13T00:32:27.712Z,9.5
2023-01-13T00:34:33.428Z,9.5
2023-01-13T00:36:39.224Z,9.5
2023-01-13T00:38:45.033Z,9.4
2023-01-13T00:40:53.953Z,9.3
2023-01-13T00:42:59.785Z,9.3
2023-01-13T00:47:11.202Z,9.2
2023-01-13T00:51:22.735Z,9.1
2023-01-13T00:53:28.552Z,9
2023-01-13T00:55:37.396Z,9
2023-01-13T00:57:43.146Z,9
2023-01-13T00:59:49.697Z,9
2023-01-13T01:01:54.881Z,8.8
2023-01-13T01:06:06.138Z,9
2023-01-13T01:08:11.869Z,9
2023-01-13T01:10:20.741Z,8.9
2023-01-13T01:12:26.553Z,8.9
2023-01-13T01:14:32.340Z,8.9
2023-01-13T01:15:36.792Z,8.8
2023-01-13T01:17:42.513Z,8.8
2023-01-13T01:19:48.319Z,8.8
2023-01-13T01:21:54.104Z,8.8
2023-01-13T01:24:02.993Z,8.8
2023-01-13T01:28:14.494Z,8.8
2023-01-13T01:38:46.548Z,9
2023-01-13T01:40:52.348Z,9
2023-01-13T01:42:58.135Z,8.9
2023-01-13T01:49:15.438Z,8.9
2023-01-13T01:51:21.099Z,8.9
2023-01-13T01:53:29.991Z,8.8
2023-01-13T01:55:35.794Z,8.9
2023-01-13T01:57:41.604Z,8.8
2023-01-13T02:01:53.328Z,8.8
2023-01-13T02:03:58.957Z,8.8
2023-01-13T02:06:04.776Z,8.7
2023-01-13T02:08:13.518Z,8.7
2023-01-13T02:13:29.481Z,8.7
2023-01-13T02:15:35.254Z,8.7
2023-01-13T02:17:41.028Z,8.7
2023-01-13T02:19:46.832Z,8.7
2023-01-13T02:24:01.527Z,8.6
2023-01-13T02:26:07.309Z,8.6
2023-01-13T02:28:13.030Z,8.6
2023-01-13T02:30:18.822Z,8.7
2023-01-13T02:32:24.590Z,8.6
2023-01-13T02:34:30.355Z,8.6
2023-01-13T02:38:45.059Z,8.5
2023-01-13T02:45:02.431Z,8.6
2023-01-13T02:47:08.244Z,8.6
2023-01-13T02:49:14.044Z,8.6
2023-01-13T02:51:22.935Z,8.5
2023-01-13T02:53:28.724Z,8.6
2023-01-13T02:55:34.495Z,8.5
2023-01-13T02:57:40.297Z,8.5
2023-01-13T02:59:46.134Z,8.6
2023-01-13T03:01:52.148Z,8.6
2023-01-13T03:03:57.689Z,8.6
2023-01-13T03:06:06.591Z,8.7
2023-01-13T03:10:18.187Z,8.7
2023-01-13T03:11:22.608Z,8.7
2023-01-13T03:13:28.423Z,8.7
2023-01-13T03:15:34.191Z,8.7
2023-01-13T03:17:40.004Z,8.7
2023-01-13T03:19:48.877Z,8.7
2023-01-13T03:21:54.688Z,8.7
2023-01-13T03:24:00.471Z,8.7
2023-01-13T03:26:06.260Z,8.7
2023-01-13T03:28:12.084Z,8.7
2023-01-13T03:32:23.660Z,8.7
2023-01-13T03:34:32.555Z,8.7
2023-01-13T03:36:38.357Z,8.7
2023-01-13T03:38:44.145Z,8.7
2023-01-13T03:40:49.930Z,8.7
2023-01-13T03:42:55.729Z,8.8
2023-01-13T03:45:01.546Z,8.9
2023-01-13T03:47:07.338Z,8.9
2023-01-13T03:49:16.230Z,8.9
2023-01-13T03:51:22.020Z,8.9
2023-01-13T03:53:27.821Z,8.9
2023-01-13T03:55:33.642Z,8.9
2023-01-13T03:57:39.495Z,8.9
2023-01-13T03:59:45.147Z,8.9
2023-01-13T04:03:59.871Z,9
2023-01-13T04:06:05.628Z,8.9
2023-01-13T04:08:11.433Z,9
2023-01-13T04:10:43.001Z,8.9
2023-01-13T04:12:48.683Z,8.9
2023-01-13T04:14:54.469Z,8.9
2023-01-13T04:27:32.429Z,8.8
2023-01-13T04:29:38.200Z,8.8
2023-01-13T04:33:52.887Z,8.6
2023-01-13T04:35:58.694Z,8.6
2023-01-13T04:38:04.501Z,8.6
2023-01-13T04:40:10.288Z,8.7
2023-01-13T04:42:16.106Z,8.6
2023-01-13T04:44:21.925Z,8.6
2023-01-13T04:46:30.895Z,8.6
2023-01-13T04:48:36.611Z,8.5
2023-01-13T04:50:42.383Z,8.5
2023-01-13T04:52:48.197Z,8.5
2023-01-13T04:54:53.995Z,8.5
2023-01-13T04:56:59.817Z,8.5
2023-01-13T04:59:05.599Z,8.4
2023-01-13T05:01:14.564Z,8.4
2023-01-13T05:03:20.255Z,8.5
2023-01-13T05:05:26.075Z,8.4
2023-01-13T05:06:30.525Z,8.4
2023-01-13T05:08:36.300Z,8.4
2023-01-13T05:10:42.113Z,8.4
2023-01-13T05:12:47.882Z,8.4
2023-01-13T05:21:14.141Z,8.3
2023-01-13T05:23:19.931Z,8.3
2023-01-13T05:25:27.365Z,8.3
2023-01-13T05:35:59.358Z,8.3
2023-01-13T05:38:05.144Z,8.3
2023-01-13T05:40:10.927Z,8.2
2023-01-13T05:42:16.694Z,8.2
2023-01-13T05:44:25.604Z,8.2
2023-01-13T05:46:31.476Z,8.2
2023-01-13T05:48:37.198Z,8.2
2023-01-13T05:52:48.722Z,8.2
2023-01-13T05:54:54.523Z,8.3
2023-01-13T05:57:00.320Z,8.3
2023-01-13T05:59:09.164Z,8.3
2023-01-13T06:01:15.021Z,8.3
2023-01-13T06:03:20.761Z,8.4
2023-01-13T06:04:25.255Z,8.4
2023-01-13T06:06:30.966Z,8.4
2023-01-13T06:08:39.305Z,8.4
2023-01-13T06:10:42.556Z,8.4
2023-01-13T06:12:51.425Z,8.4
2023-01-13T06:14:57.248Z,8.4
2023-01-13T06:17:03.023Z,8.4
2023-01-13T06:19:08.823Z,8.3
2023-01-13T06:21:14.605Z,8.3
2023-01-13T06:23:20.430Z,8.3
2023-01-13T06:25:26.186Z,8.2
2023-01-13T06:27:35.069Z,8.2
2023-01-13T06:29:40.842Z,8.3
2023-01-13T06:31:46.660Z,8.2
2023-01-13T06:33:52.446Z,8.2
2023-01-13T06:35:58.246Z,8.3
2023-01-13T06:38:04.019Z,8.3
2023-01-13T06:44:24.484Z,8.4
2023-01-13T06:46:30.326Z,8.4
2023-01-13T06:48:36.089Z,8.5
2023-01-13T06:50:41.843Z,8.4
2023-01-13T06:52:47.534Z,8.4
2023-01-13T06:54:53.341Z,8.5
2023-01-13T06:59:07.989Z,8.4
2023-01-13T07:01:13.960Z,8.5
2023-01-13T07:02:18.315Z,8.5
2023-01-13T07:04:24.072Z,8.4
2023-01-13T07:06:29.856Z,8.4
2023-01-13T07:08:35.530Z,8.5
2023-01-13T07:10:44.415Z,8.4
2023-01-13T07:14:56.007Z,8.5
2023-01-13T07:17:01.818Z,8.5
2023-01-13T07:19:07.620Z,8.5
2023-01-13T07:21:13.459Z,8.5
2023-01-13T07:23:19.259Z,8.5
2023-01-13T07:25:27.951Z,8.5
2023-01-13T07:27:33.743Z,8.5
2023-01-13T07:31:45.405Z,8.5
2023-01-13T07:40:11.427Z,8.6
2023-01-13T07:42:17.243Z,8.6
2023-01-13T07:44:23.058Z,8.6
2023-01-13T07:46:28.871Z,8.6
2023-01-13T07:48:34.614Z,8.6
2023-01-13T07:50:41.582Z,8.6
2023-01-13T07:52:46.054Z,8.6
2023-01-13T07:54:54.920Z,8.6
2023-01-13T07:57:00.725Z,8.6
2023-01-13T07:59:06.520Z,8.6
2023-01-13T08:01:38.232Z,8.6
2023-01-13T08:03:43.807Z,8.6
2023-01-13T08:05:49.594Z,8.6
2023-01-13T08:07:58.472Z,8.6
2023-01-13T08:10:04.305Z,8.6
2023-01-13T08:12:10.102Z,8.6
2023-01-13T08:14:15.937Z,8.6
2023-01-13T08:16:21.763Z,8.6
2023-01-13T08:18:27.531Z,8.6
2023-01-13T08:20:33.329Z,8.5
2023-01-13T08:22:42.237Z,8.5
2023-01-13T08:24:48.033Z,8.5
2023-01-13T08:26:53.820Z,8.5
2023-01-13T08:28:59.640Z,8.6
2023-01-13T08:31:05.530Z,8.6
2023-01-13T08:35:17.239Z,8.7
2023-01-13T08:43:43.526Z,8.8
2023-01-13T08:45:49.360Z,8.8
2023-01-13T08:47:55.165Z,8.8
2023-01-13T08:50:00.938Z,8.9
2023-01-13T08:52:09.734Z,9
2023-01-13T08:54:15.407Z,9
2023-01-13T08:56:21.217Z,9
2023-01-13T08:57:25.697Z,9
2023-01-13T08:59:31.472Z,9
2023-01-13T09:01:37.415Z,9
2023-01-13T09:03:42.950Z,9
2023-01-13T09:16:20.809Z,8.7
2023-01-13T09:18:26.653Z,8.6
2023-01-13T09:20:35.435Z,8.5
2023-01-13T09:22:41.216Z,8.5
2023-01-13T09:26:52.853Z,8.3
2023-01-13T09:28:58.662Z,8.3
2023-01-13T09:31:04.466Z,8.3
2023-01-13T09:33:10.235Z,8.3
2023-01-13T09:35:19.145Z,8.2
2023-01-13T09:37:24.954Z,8.3
2023-01-13T09:43:42.360Z,8.2
2023-01-13T09:45:48.147Z,8.2
2023-01-13T09:50:02.810Z,8.2
2023-01-13T09:52:08.623Z,8.2
2023-01-13T09:54:14.412Z,8.3
2023-01-13T09:55:18.863Z,8.3
2023-01-13T09:57:24.661Z,8.3
2023-01-13T09:59:30.464Z,8.2
2023-01-13T10:01:36.243Z,8.2
2023-01-13T10:03:45.210Z,8.3
2023-01-13T10:05:50.911Z,8.3
2023-01-13T10:10:02.602Z,8.3
2023-01-13T10:12:08.338Z,8.2
2023-01-13T10:14:14.105Z,8.2
2023-01-13T10:16:19.989Z,8.3
2023-01-13T10:18:28.776Z,8.2
2023-01-13T10:22:40.376Z,8.1
2023-01-13T10:24:46.192Z,8.2
2023-01-13T10:26:51.973Z,8.3
2023-01-13T10:28:57.767Z,8.2
2023-01-13T10:31:03.572Z,8.3
2023-01-13T10:33:12.433Z,8.2
2023-01-13T10:35:18.241Z,8.1
2023-01-13T10:39:29.805Z,8.2
2023-01-13T10:41:35.598Z,8.2
2023-01-13T10:43:41.418Z,8.1
2023-01-13T10:45:47.197Z,7.8
2023-01-13T10:50:01.900Z,7.8
2023-01-13T10:52:07.672Z,7.9
2023-01-13T10:53:12.124Z,7.9
2023-01-13T10:55:17.903Z,7.9
2023-01-13T10:57:23.682Z,8
2023-01-13T10:59:29.482Z,8
2023-01-13T11:01:38.485Z,8
2023-01-13T11:03:44.168Z,8.1
2023-01-13T11:05:49.941Z,8.1
2023-01-13T11:10:01.558Z,8.5
2023-01-13T11:12:07.340Z,8.5
2023-01-13T11:14:13.119Z,8.5
2023-01-13T11:18:27.816Z,8.5
2023-01-13T11:20:34.374Z,8.4
2023-01-13T11:22:40.170Z,8.5
2023-01-13T11:24:45.974Z,8.3
2023-01-13T11:26:51.774Z,8.4
2023-01-13T11:28:59.223Z,8.4
2023-01-13T11:31:08.066Z,8.5
2023-01-13T11:33:13.841Z,8.5
2023-01-13T11:35:19.624Z,8.5
2023-01-13T11:39:31.196Z,8.6
2023-01-13T11:41:37.026Z,8.6
2023-01-13T11:43:42.848Z,8.6
2023-01-13T11:45:51.725Z,8.7
2023-01-13T11:47:57.510Z,8.7
2023-01-13T11:50:03.331Z,8.8
2023-01-13T11:52:34.731Z,8.8
2023-01-13T11:54:40.547Z,8.8
2023-01-13T11:56:46.251Z,8.9
2023-01-13T11:58:55.019Z,8.9
2023-01-13T12:05:12.442Z,8.8
2023-01-13T12:07:18.256Z,8.9
2023-01-13T12:09:24.067Z,8.8
2023-01-13T12:11:29.915Z,8.9
2023-01-13T12:13:38.696Z,8.9
2023-01-13T12:15:44.495Z,8.9
2023-01-13T12:17:50.295Z,8.9
2023-01-13T12:24:07.751Z,9
2023-01-13T12:26:13.540Z,9
2023-01-13T12:28:22.485Z,9
2023-01-13T12:30:28.267Z,9
2023-01-13T12:32:34.067Z,9.1
2023-01-13T12:34:39.877Z,9.1
2023-01-13T12:36:45.690Z,9.2
2023-01-13T12:38:51.513Z,9.2
2023-01-13T12:40:57.307Z,9.2
2023-01-13T12:43:06.107Z,9.2
2023-01-13T12:45:11.923Z,9.2
2023-01-13T12:47:17.648Z,9.3
2023-01-13T12:48:22.099Z,9.3
2023-01-13T12:50:27.792Z,9.3
2023-01-13T12:52:33.505Z,9.3
2023-01-13T12:54:39.205Z,9.4
2023-01-13T12:56:48.023Z,9.4
2023-01-13T12:58:53.743Z,9.4
2023-01-13T13:00:59.621Z,9.4
2023-01-13T13:07:16.730Z,9.4
2023-01-13T13:09:22.544Z,9.5
2023-01-13T13:15:42.923Z,9.5
2023-01-13T13:17:48.725Z,9.6
2023-01-13T13:19:54.563Z,9.6
2023-01-13T13:22:00.256Z,9.6
2023-01-13T13:24:06.023Z,9.6
2023-01-13T13:26:14.672Z,9.7
2023-01-13T13:28:20.483Z,9.7
2023-01-13T13:30:26.299Z,9.7
2023-01-13T13:32:32.041Z,9.7
2023-01-13T13:34:37.793Z,9.8
2023-01-13T13:36:43.477Z,9.7
2023-01-13T13:38:49.297Z,9.7
2023-01-13T13:40:58.081Z,9.8
2023-01-13T13:43:03.734Z,9.8
2023-01-13T13:45:09.502Z,9.8
2023-01-13T13:46:13.835Z,9.8
2023-01-13T13:48:19.530Z,9.8
2023-01-13T13:50:25.276Z,9.8
2023-01-13T13:52:31.069Z,9.8
2023-01-13T13:56:45.389Z,9.8
2023-01-13T13:58:51.128Z,9.9
2023-01-13T14:00:56.937Z,9.9
2023-01-13T14:03:02.579Z,9.9
2023-01-13T14:07:14.035Z,9.9
2023-01-13T14:09:22.729Z,9.9
2023-01-13T14:11:28.454Z,10
2023-01-13T14:13:34.163Z,10
2023-01-13T14:15:39.951Z,9.9
2023-01-13T14:21:57.127Z,10
2023-01-13T14:24:05.791Z,9.9
2023-01-13T14:26:11.539Z,9.9
2023-01-13T14:28:17.266Z,9.8
2023-01-13T14:30:22.979Z,9.9
2023-01-13T14:32:28.705Z,9.9
2023-01-13T14:34:34.433Z,9.9
2023-01-13T14:36:40.176Z,9.8
2023-01-13T14:38:48.863Z,9.8
2023-01-13T14:40:54.584Z,9.8
2023-01-13T14:43:00.328Z,9.8
2023-01-13T14:44:04.674Z,9.8
2023-01-13T14:46:10.498Z,9.8
2023-01-13T14:48:16.151Z,9.8
2023-01-13T14:50:21.874Z,9.8
2023-01-13T14:54:36.343Z,9.7
2023-01-13T14:56:42.038Z,9.8
2023-01-13T14:58:47.790Z,9.8
2023-01-13T15:00:53.587Z,9.7
2023-01-13T15:02:59.412Z,9.7
2023-01-13T15:05:05.058Z,9.7
2023-01-13T15:07:13.879Z,9.7
2023-01-13T15:09:19.571Z,9.7
2023-01-13T15:11:25.299Z,9.7
2023-01-13T15:13:31.045Z,9.7
2023-01-13T15:15:36.769Z,9.7
2023-01-13T15:17:42.515Z,9.6
2023-01-13T15:19:48.344Z,9.6
2023-01-13T15:21:57.043Z,9.5
2023-01-13T15:24:02.744Z,9.5
2023-01-13T15:26:08.485Z,9.5
2023-01-13T15:28:14.201Z,9.4
2023-01-13T15:32:25.658Z,9.3
2023-01-13T15:36:40.064Z,9.3
2023-01-13T15:38:45.780Z,9.3
2023-01-13T15:40:51.501Z,9.3
2023-01-13T15:43:22.810Z,9.3
2023-01-13T15:47:34.259Z,9.4
2023-01-13T15:49:43.025Z,9.4
2023-01-13T15:51:48.734Z,9.4
2023-01-13T15:53:54.474Z,9.4
2023-01-13T15:56:00.222Z,9.4
2023-01-13T15:58:05.901Z,9.4
2023-01-13T16:00:11.612Z,9.4
2023-01-13T16:02:17.350Z,9.5
2023-01-13T16:04:26.088Z,9.5
2023-01-13T16:08:37.486Z,9.5
2023-01-13T16:10:43.208Z,9.5
2023-01-13T16:12:48.959Z,9.5
2023-01-13T16:14:54.649Z,9.4
2023-01-13T16:17:00.391Z,9.3
2023-01-13T16:19:09.073Z,9.3
2023-01-13T16:21:14.781Z,9.3
2023-01-13T16:23:20.546Z,9.3
2023-01-13T16:25:26.292Z,9.3
2023-01-13T16:27:32.069Z,9.3
2023-01-13T16:31:43.582Z,9.3
2023-01-13T16:33:52.203Z,9.3
2023-01-13T16:36:10.760Z,9.3
2023-01-13T16:38:03.726Z,9.3
2023-01-13T16:39:08.024Z,9.4
2023-01-13T16:41:13.755Z,9.3
2023-01-13T16:43:19.517Z,9.4
2023-01-13T16:45:25.313Z,9.3
2023-01-13T16:47:34.026Z,9.3
2023-01-13T16:49:39.778Z,9.3
2023-01-13T16:51:45.479Z,9.2
2023-01-13T16:53:51.259Z,9.2
2023-01-13T16:55:56.949Z,9.1
2023-01-13T16:58:02.756Z,9.1
2023-01-13T17:00:08.386Z,9.1
2023-01-13T17:02:17.188Z,9.1
2023-01-13T17:04:22.905Z,9
2023-01-13T17:06:28.611Z,9.1
2023-01-13T17:08:34.433Z,9.1
2023-01-13T17:10:40.197Z,9
2023-01-13T17:12:45.901Z,9
2023-01-13T17:14:51.618Z,9
2023-01-13T17:17:00.449Z,9
2023-01-13T17:19:06.244Z,9.1
2023-01-13T17:21:12.052Z,9
2023-01-13T17:23:17.767Z,9
2023-01-13T17:25:23.606Z,8.9
2023-01-13T17:27:29.302Z,9
2023-01-13T17:31:45.452Z,8.8
2023-01-13T17:33:51.192Z,8.8
2023-01-13T17:35:57.004Z,8.7
2023-01-13T17:37:01.441Z,8.6
2023-01-13T17:39:07.268Z,8.6
2023-01-13T17:41:13.076Z,8.5
2023-01-13T17:43:18.787Z,8.6
2023-01-13T17:45:27.722Z,8.4
2023-01-13T17:47:33.489Z,8.4
2023-01-13T17:49:39.287Z,8.3
2023-01-13T17:51:45.099Z,8.3
2023-01-13T17:53:50.880Z,8.1
2023-01-13T17:55:56.698Z,8.1
2023-01-13T17:58:02.501Z,8.1
2023-01-13T18:00:11.383Z,8.1
2023-01-13T18:02:17.315Z,8.2
2023-01-13T18:04:22.990Z,8.2
2023-01-13T18:06:28.798Z,8.2
2023-01-13T18:08:34.603Z,8.3
2023-01-13T18:10:40.405Z,8.2
2023-01-13T18:12:46.187Z,8.1
2023-01-13T18:14:55.049Z,8.1
2023-01-13T18:17:00.912Z,8.1
2023-01-13T18:19:06.648Z,8.1
2023-01-13T18:21:12.426Z,8.2
2023-01-13T18:23:18.215Z,8.1
2023-01-13T18:25:24.023Z,8.1
2023-01-13T18:27:29.833Z,8.1
2023-01-13T18:29:38.671Z,8.2
2023-01-13T18:31:44.501Z,8.1
2023-01-13T18:33:50.264Z,8.2
2023-01-13T18:35:05.069Z,8.2
2023-01-13T18:37:00.516Z,8.2
2023-01-13T18:39:06.296Z,8.2
2023-01-13T18:41:12.097Z,8.2
2023-01-13T18:43:20.973Z,8.1
2023-01-13T18:45:26.761Z,8
2023-01-13T18:47:32.569Z,8
2023-01-13T18:49:38.348Z,8.1
2023-01-13T18:51:44.143Z,8
2023-01-13T18:53:49.943Z,8
2023-01-13T18:55:55.743Z,7.9
2023-01-13T19:06:29.605Z,7.8
2023-01-13T19:14:54.033Z,7.7
2023-01-13T19:16:59.790Z,7.7
2023-01-13T19:19:05.594Z,7.6
2023-01-13T19:21:11.395Z,7.6
2023-01-13T19:23:17.160Z,7.6
2023-01-13T19:29:37.595Z,7.5
2023-01-13T19:34:14.891Z,7.5
2023-01-13T19:36:20.676Z,7.6
2023-01-13T19:38:26.443Z,7.6
2023-01-13T19:40:35.311Z,7.5
2023-01-13T19:42:41.096Z,7.6
2023-01-13T19:44:46.886Z,7.5
2023-01-13T19:46:52.645Z,7.5
2023-01-13T19:51:04.173Z,7.5
2023-01-13T19:53:09.948Z,7.5
2023-01-13T19:55:18.792Z,7.5
2023-01-13T19:57:24.587Z,7.5
2023-01-13T20:01:36.336Z,7.6
2023-01-13T20:03:41.870Z,7.5
2023-01-13T20:05:47.648Z,7.6
2023-01-13T20:07:53.445Z,7.6
2023-01-13T20:10:02.331Z,7.6
2023-01-13T20:12:08.047Z,7.6
2023-01-13T20:14:13.824Z,7.7
2023-01-13T20:16:19.659Z,7.6
2023-01-13T20:18:25.363Z,7.7
2023-01-13T20:20:31.115Z,7.6
2023-01-13T20:24:45.743Z,7.7
2023-01-13T20:28:57.293Z,7.7
2023-01-13T20:32:07.481Z,7.8
2023-01-13T20:34:13.257Z,7.8
2023-01-13T20:38:27.900Z,8
2023-01-13T20:40:33.663Z,8
2023-01-13T20:42:39.447Z,8
2023-01-13T20:44:45.250Z,8
2023-01-13T20:46:51.116Z,7.9
2023-01-13T20:48:56.794Z,7.9
2023-01-13T20:51:02.663Z,7.9
2023-01-13T20:53:11.449Z,7.9
2023-01-13T21:01:34.713Z,7.8
2023-01-13T21:03:40.367Z,7.8
2023-01-13T21:10:00.768Z,7.9
2023-01-13T21:14:12.345Z,7.7
2023-01-13T21:16:18.166Z,7.7
2023-01-13T21:18:23.896Z,7.8
2023-01-13T21:20:29.675Z,7.7
2023-01-13T21:24:44.295Z,7.7
2023-01-13T21:26:50.085Z,7.7
2023-01-13T21:27:54.494Z,7.8
2023-01-13T21:30:00.347Z,7.7
2023-01-13T21:34:11.841Z,7.8
2023-01-13T21:36:20.743Z,7.8
2023-01-13T21:38:26.482Z,7.8
2023-01-13T21:40:32.254Z,7.8
2023-01-13T21:42:38.041Z,7.9
2023-01-13T21:44:43.823Z,7.8
2023-01-13T21:48:55.307Z,7.8
2023-01-13T21:51:04.204Z,7.8
2023-01-13T21:53:09.951Z,7.8
2023-01-13T21:55:15.757Z,7.8
2023-01-13T21:57:21.524Z,7.8
2023-01-13T21:59:27.286Z,7.7
2023-01-13T22:01:33.151Z,7.7
2023-01-13T22:03:38.851Z,7.7
2023-01-13T22:05:47.707Z,7.7
2023-01-13T22:07:53.499Z,7.7
2023-01-13T22:09:59.251Z,7.7
2023-01-13T22:12:05.012Z,7.7
2023-01-13T22:14:10.793Z,7.7
2023-01-13T22:16:16.676Z,7.7
2023-01-13T22:18:22.348Z,7.7
2023-01-13T22:20:31.198Z,7.7
2023-01-13T22:24:42.722Z,7.8
2023-01-13T22:27:52.927Z,7.8
2023-01-13T22:32:04.454Z,7.9
2023-01-13T22:34:13.316Z,7.9
2023-01-13T22:36:19.079Z,7.9
2023-01-13T22:38:18.861Z,7.9
2023-01-13T22:40:24.619Z,7.9
2023-01-13T22:42:30.395Z,8
2023-01-13T22:44:36.166Z,8.1
2023-01-13T22:46:41.958Z,8.1
2023-01-13T22:48:50.808Z,8
2023-01-13T22:50:56.584Z,8
2023-01-13T22:53:02.388Z,8
2023-01-13T22:55:08.172Z,8
2023-01-13T22:57:14.356Z,8.1
2023-01-13T22:59:19.720Z,8.1
2023-01-13T23:01:25.624Z,8.1
2023-01-13T23:03:34.371Z,8
2023-01-13T23:05:40.109Z,7.9
2023-01-13T23:07:45.904Z,8
2023-01-13T23:09:51.717Z,8
2023-01-13T23:11:57.475Z,8
2023-01-13T23:14:03.254Z,8
2023-01-13T23:16:09.017Z,8
2023-01-13T23:18:17.888Z,7.9
2023-01-13T23:20:23.677Z,7.9
2023-01-13T23:22:29.445Z,7.9
2023-01-13T23:27:01.005Z,7.8
2023-01-13T23:29:06.826Z,7.9
2023-01-13T23:31:17.252Z,7.8
2023-01-13T23:33:22.989Z,7.8
2023-01-13T23:35:28.797Z,7.8
2023-01-13T23:37:34.564Z,7.7
2023-01-13T23:41:46.158Z,7.7
2023-01-13T23:46:00.824Z,7.7
2023-01-13T23:48:06.552Z,7.7
2023-01-13T23:50:12.295Z,7.7
2023-01-13T23:52:18.092Z,7.6
2023-01-13T23:54:23.837Z,7.6
2023-01-13T23:56:29.619Z,7.6
2023-01-13T23:58:35.219Z,7.6
